Time;durP1;ratioP1;P1;durP2;ratioP2;P2;SDS_P1;SDS_P2;PMS_P1;PMS_P2;Temp;Humidity;BMP_temperature;BMP_pressure;BME280_temperature;BME280_humidity;BME280_pressure;Samples;Min_cycle;Max_cycle;Signal;HPM_P1;HPM_P2
2021/01/03 00:02:10;;;;;;;25.52;11.57;;;;;;;-0.48;83.08;99330.87;1871120;74;21257;-80
2021/01/03 00:04:40;;;;;;;26.23;11.25;;;;;;;-0.43;82.79;99328.41;1879292;74;21288;-79
2021/01/03 00:07:09;;;;;;;24.35;11.22;;;;;;;-0.40;82.90;99318.24;1840115;77;21686;-77
2021/01/03 00:09:37;;;;;;;29.63;12.35;;;;;;;-0.41;83.73;99326.33;1810985;77;21709;-78
2021/01/03 00:12:05;;;;;;;26.52;12.03;;;;;;;-0.36;83.64;99317.48;1825733;76;21306;-79
2021/01/03 00:14:32;;;;;;;32.85;13.32;;;;;;;-0.31;83.50;99313.77;1825326;78;21320;-80
2021/01/03 00:17:03;;;;;;;25.10;11.60;;;;;;;-0.26;82.46;99315.61;1826753;78;21146;-79
2021/01/03 00:19:31;;;;;;;26.48;12.40;;;;;;;-0.28;83.22;99318.54;1825615;76;21302;-79
2021/01/03 00:21:58;;;;;;;25.80;11.03;;;;;;;-0.28;82.99;99320.20;1823926;78;22392;-79
2021/01/03 00:24:26;;;;;;;23.47;11.22;;;;;;;-0.25;82.74;99330.09;1829596;76;22578;-80
2021/01/03 00:26:53;;;;;;;26.95;10.65;;;;;;;-0.29;83.00;99323.19;1828512;78;21288;-79
2021/01/03 00:29:20;;;;;;;25.30;11.63;;;;;;;-0.29;82.68;99316.80;1825501;76;21272;-79
2021/01/03 00:31:50;;;;;;;28.92;11.85;;;;;;;-0.24;82.47;99339.50;1825724;78;21312;-80
2021/01/03 00:34:20;;;;;;;25.27;11.60;;;;;;;-0.25;82.46;99340.73;1823093;78;21924;-80
2021/01/03 00:36:48;;;;;;;30.70;11.18;;;;;;;-0.26;82.33;99342.43;1820285;78;21164;-79
2021/01/03 00:39:16;;;;;;;26.25;12.00;;;;;;;-0.26;82.27;99343.70;1818709;78;21204;-80
2021/01/03 00:41:50;;;;;;;28.15;12.43;;;;;;;-0.25;82.04;99354.78;1797740;78;21321;-79
2021/01/03 00:44:19;;;;;;;29.77;11.65;;;;;;;-0.25;82.00;99335.20;1827756;77;21121;-79
2021/01/03 00:46:47;;;;;;;33.65;13.32;;;;;;;-0.27;81.75;99333.45;1785249;80;21156;-78
2021/01/03 00:49:14;;;;;;;29.85;12.35;;;;;;;-0.33;82.04;99337.14;1802622;79;21657;-78
2021/01/03 00:51:42;;;;;;;31.90;10.38;;;;;;;-0.37;82.28;99335.35;1796686;79;21750;-79
2021/01/03 00:54:10;;;;;;;27.15;11.25;;;;;;;-0.38;81.82;99333.61;1804127;79;21206;-80
2021/01/03 00:56:37;;;;;;;27.17;11.10;;;;;;;-0.39;81.93;99336.59;1803694;79;21264;-79
2021/01/03 00:59:04;;;;;;;25.65;10.98;;;;;;;-0.37;82.40;99337.91;1825912;77;21935;-79
2021/01/03 01:01:32;;;;;;;38.00;12.37;;;;;;;-0.38;82.69;99333.61;1812173;79;21161;-78
2021/01/03 01:03:59;;;;;;;30.37;11.93;;;;;;;-0.41;82.80;99330.16;1812938;79;21632;-79
2021/01/03 01:06:27;;;;;;;31.95;12.98;;;;;;;-0.40;81.93;99322.08;1811678;79;21169;-80
2021/01/03 01:08:54;;;;;;;28.67;11.90;;;;;;;-0.43;83.56;99323.30;1809271;78;21161;-81
2021/01/03 01:11:24;;;;;;;28.95;12.45;;;;;;;-0.41;82.52;99331.86;1811443;79;21648;-78
2021/01/03 01:13:51;;;;;;;32.78;12.98;;;;;;;-0.40;82.38;99332.30;1810811;79;21125;-80
2021/01/03 01:16:19;;;;;;;31.05;15.40;;;;;;;-0.40;82.45;99320.80;1808371;78;21522;-78
2021/01/03 01:18:46;;;;;;;23.57;11.12;;;;;;;-0.40;81.59;99315.69;1810149;79;21180;-80
2021/01/03 01:21:14;;;;;;;28.25;12.03;;;;;;;-0.44;82.47;99320.28;1811381;79;21744;-79
2021/01/03 01:23:41;;;;;;;27.22;11.75;;;;;;;-0.46;83.52;99322.83;1808888;79;21617;-80
2021/01/03 01:26:08;;;;;;;29.55;11.55;;;;;;;-0.44;82.85;99321.56;1811191;78;21591;-79
2021/01/03 01:28:36;;;;;;;28.15;11.35;;;;;;;-0.41;82.98;99328.03;1812283;79;21153;-78
2021/01/03 01:31:04;;;;;;;26.73;10.80;;;;;;;-0.36;82.35;99333.23;1811092;78;21212;-80
2021/01/03 01:33:32;;;;;;;27.27;11.93;;;;;;;-0.33;82.63;99326.50;1802797;78;21196;-78
2021/01/03 01:35:59;;;;;;;26.20;11.83;;;;;;;-0.29;82.45;99328.30;1762582;80;21161;-79
2021/01/03 01:38:27;;;;;;;33.13;12.15;;;;;;;-0.27;82.44;99320.25;1761702;79;21149;-78
2021/01/03 01:40:57;;;;;;;29.00;11.78;;;;;;;-0.24;82.68;99328.39;1769670;81;21608;-78
2021/01/03 01:43:24;;;;;;;33.38;12.53;;;;;;;-0.23;83.21;99321.19;1769669;79;21180;-79
2021/01/03 01:45:53;;;;;;;29.57;13.13;;;;;;;-0.22;82.72;99318.67;1770355;79;21197;-78
2021/01/03 01:48:35;;;;;;;29.20;12.05;;;;;;;-0.22;82.93;99311.00;1766683;79;21172;-80
2021/01/03 01:51:08;;;;;;;25.12;11.80;;;;;;;-0.21;82.97;99314.41;1768686;79;21619;-79
2021/01/03 01:53:47;;;;;;;32.98;9.70;;;;;;;-0.19;83.24;99302.95;1761366;79;21172;-78
2021/01/03 01:56:25;;;;;;;31.62;12.45;;;;;;;-0.15;82.62;99298.36;1763103;79;21152;-78
2021/01/03 01:59:09;;;;;;;26.87;12.07;;;;;;;-0.13;82.82;99295.42;1765914;79;21184;-78
2021/01/03 02:02:02;;;;;;;28.12;13.88;;;;;;;-0.08;82.99;99302.36;1805217;78;22938;-80
2021/01/03 02:04:34;;;;;;;32.45;13.70;;;;;;;-0.09;82.82;99307.00;1744837;82;22411;-79
2021/01/03 02:07:13;;;;;;;29.23;13.30;;;;;;;-0.08;82.92;99295.08;1808176;79;21299;-79
2021/01/03 02:10:07;;;;;;;26.85;11.80;;;;;;;-0.08;82.67;99293.80;1806295;79;21284;-80
2021/01/03 02:12:39;;;;;;;33.53;13.62;;;;;;;-0.08;82.46;99295.97;1810023;79;21268;-79
2021/01/03 02:15:21;;;;;;;29.55;12.35;;;;;;;-0.11;83.07;99285.66;1807935;79;21162;-80
2021/01/03 02:18:00;;;;;;;28.65;11.97;;;;;;;-0.04;82.65;99281.53;1800227;78;22866;-80
2021/01/03 02:20:33;;;;;;;27.95;12.55;;;;;;;-0.10;82.66;99279.73;1796178;80;21907;-78
2021/01/03 02:23:04;;;;;;;20.82;10.13;;;;;;;-0.09;82.44;99281.87;1796076;80;21167;-78
2021/01/03 02:25:32;;;;;;;27.67;10.23;;;;;;;-0.08;81.74;99277.19;1793873;80;21176;-79
2021/01/03 02:28:17;;;;;;;25.60;10.30;;;;;;;-0.12;81.77;99285.63;1781079;80;21582;-80
2021/01/03 02:30:51;;;;;;;20.70;9.00;;;;;;;-0.12;81.54;99283.07;1794253;80;21145;-81
2021/01/03 02:33:33;;;;;;;23.40;9.13;;;;;;;-0.15;81.14;99281.75;1770644;80;21160;-78
2021/01/03 02:36:09;;;;;;;20.23;8.50;;;;;;;-0.16;81.20;99297.50;1795221;80;21157;-79
2021/01/03 02:39:07;;;;;;;26.07;8.45;;;;;;;-0.13;80.90;99285.20;1803016;77;22794;-79
2021/01/03 02:41:34;;;;;;;21.65;7.97;;;;;;;-0.24;80.82;99278.56;1804160;79;21158;-79
2021/01/03 02:44:02;;;;;;;16.87;8.50;;;;;;;-0.26;80.94;99282.78;1745173;82;21177;-79
2021/01/03 02:46:29;;;;;;;17.55;7.80;;;;;;;-0.30;80.84;99285.71;1807214;79;21704;-78
2021/01/03 02:48:57;;;;;;;22.42;8.45;;;;;;;-0.32;80.86;99276.27;1801832;79;21169;-79
2021/01/03 02:51:32;;;;;;;20.08;8.00;;;;;;;-0.34;80.60;99274.09;1734724;81;21200;-78
2021/01/03 02:54:00;;;;;;;21.90;8.33;;;;;;;-0.39;80.68;99271.45;1730207;82;21152;-78
2021/01/03 02:56:27;;;;;;;23.73;8.75;;;;;;;-0.45;80.65;99264.94;1806109;79;21276;-78
2021/01/03 02:58:55;;;;;;;15.93;7.87;;;;;;;-0.51;80.98;99259.27;1744401;82;21189;-78
2021/01/03 03:01:22;;;;;;;24.00;10.78;;;;;;;-0.54;81.36;99255.78;1744989;81;21464;-78
2021/01/03 03:03:50;;;;;;;30.00;10.65;;;;;;;-0.56;81.51;99264.68;1806289;79;21330;-77
2021/01/03 03:06:17;;;;;;;28.62;11.60;;;;;;;-0.57;81.66;99264.67;1805543;79;21605;-79
2021/01/03 03:08:45;;;;;;;27.58;10.23;;;;;;;-0.57;81.53;99265.95;1730665;81;21693;-79
2021/01/03 03:11:12;;;;;;;32.25;12.53;;;;;;;-0.59;81.77;99257.39;1802604;79;21635;-80
2021/01/03 03:13:40;;;;;;;33.35;12.78;;;;;;;-0.63;83.08;99253.48;1808242;79;21257;-79
2021/01/03 03:16:07;;;;;;;23.98;10.60;;;;;;;-0.63;82.17;99253.90;1799000;79;21280;-79
2021/01/03 03:18:34;;;;;;;32.08;12.90;;;;;;;-0.63;82.20;99250.06;1802782;79;21149;-78
2021/01/03 03:21:02;;;;;;;30.68;13.28;;;;;;;-0.63;81.80;99245.81;1806333;79;21318;-79
2021/01/03 03:23:29;;;;;;;28.50;12.40;;;;;;;-0.71;82.04;99240.95;1807264;79;21288;-79
2021/01/03 03:25:56;;;;;;;35.50;13.45;;;;;;;-0.73;81.79;99237.93;1743527;82;21548;-78
2021/01/03 03:28:24;;;;;;;31.73;13.08;;;;;;;-0.78;82.06;99230.56;1806360;79;21161;-80
2021/01/03 03:30:51;;;;;;;33.40;13.32;;;;;;;-0.82;82.30;99229.63;1802882;79;21126;-78
2021/01/03 03:33:19;;;;;;;35.13;13.85;;;;;;;-0.88;83.20;99231.63;1807312;79;21299;-79
2021/01/03 03:35:46;;;;;;;36.77;15.50;;;;;;;-0.95;83.63;99235.30;1744268;82;21172;-79
2021/01/03 03:38:13;;;;;;;33.25;13.68;;;;;;;-0.96;83.75;99231.02;1760835;81;21687;-78
2021/01/03 03:40:41;;;;;;;32.17;14.20;;;;;;;-0.98;83.70;99228.42;1758716;81;21145;-79
2021/01/03 03:43:09;;;;;;;27.50;11.68;;;;;;;-0.98;84.82;99221.18;1757988;81;21182;-79
2021/01/03 03:45:36;;;;;;;31.27;12.63;;;;;;;-0.95;83.99;99220.84;1743000;81;21265;-79
2021/01/03 03:48:05;;;;;;;30.00;12.23;;;;;;;-0.93;83.41;99219.19;1805692;79;21158;-78
2021/01/03 03:50:33;;;;;;;29.82;12.78;;;;;;;-0.91;83.00;99224.34;1739629;81;21146;-80
2021/01/03 03:53:00;;;;;;;32.55;14.45;;;;;;;-0.91;84.54;99216.26;1803437;79;21134;-78
2021/01/03 03:55:28;;;;;;;28.10;13.30;;;;;;;-0.93;85.20;99216.64;1806147;79;21157;-78
2021/01/03 03:57:55;;;;;;;36.15;12.80;;;;;;;-0.88;84.24;99222.69;1803268;78;21169;-79
2021/01/03 04:00:24;;;;;;;38.45;13.98;;;;;;;-0.84;83.82;99235.11;1731402;81;21525;-78
2021/01/03 04:02:52;;;;;;;35.40;13.62;;;;;;;-0.82;83.43;99239.45;1805291;79;21118;-79
2021/01/03 04:05:24;;;;;;;31.82;15.50;;;;;;;-0.80;83.76;99235.62;1808183;78;21248;-81
2021/01/03 04:07:52;;;;;;;31.12;12.28;;;;;;;-0.82;83.66;99221.97;1805359;79;21137;-78
2021/01/03 04:10:21;;;;;;;35.73;13.58;;;;;;;-0.82;83.49;99238.17;1744594;81;21139;-78
2021/01/03 04:12:49;;;;;;;31.95;14.70;;;;;;;-0.79;83.27;99247.59;1806909;79;21731;-79
2021/01/03 04:15:18;;;;;;;39.92;13.22;;;;;;;-0.78;83.30;99242.91;1805067;79;21157;-77
2021/01/03 04:17:46;;;;;;;26.23;11.83;;;;;;;-0.80;82.97;99233.08;1801862;79;21199;-79
2021/01/03 04:20:18;;;;;;;39.33;18.77;;;;;;;-0.92;84.00;99240.04;1805693;79;21106;-80
2021/01/03 04:22:46;;;;;;;31.45;13.72;;;;;;;-0.93;83.30;99231.09;1805674;79;21141;-77
2021/01/03 04:25:15;;;;;;;35.23;15.25;;;;;;;-0.93;82.99;99228.55;1806265;79;21173;-80
2021/01/03 04:27:44;;;;;;;36.05;14.63;;;;;;;-0.94;83.29;99228.08;1804692;79;21776;-79
2021/01/03 04:30:14;;;;;;;35.78;14.20;;;;;;;-0.91;83.17;99235.83;1802007;79;21637;-78
2021/01/03 04:32:42;;;;;;;28.10;12.18;;;;;;;-0.88;82.78;99232.91;1807775;79;21126;-80
2021/01/03 04:35:10;;;;;;;27.75;13.13;;;;;;;-0.84;82.47;99232.56;1802801;78;21162;-79
2021/01/03 04:37:38;;;;;;;30.17;12.85;;;;;;;-0.83;83.01;99235.58;1735922;80;21177;-80
2021/01/03 04:40:10;;;;;;;35.98;12.53;;;;;;;-0.82;83.34;99231.80;1763083;81;21168;-78
2021/01/03 04:42:37;;;;;;;25.72;11.70;;;;;;;-0.77;82.81;99227.20;1760597;81;21161;-78
2021/01/03 04:45:20;;;;;;;28.47;13.03;;;;;;;-0.74;82.83;99228.11;1760260;81;21146;-78
2021/01/03 04:48:18;;;;;;;28.73;12.07;;;;;;;-0.71;83.09;99235.85;1738391;81;21621;-78
2021/01/03 04:51:00;;;;;;;29.42;13.60;;;;;;;-0.66;83.13;99240.66;1758993;81;21186;-78
2021/01/03 04:53:55;;;;;;;24.70;11.78;;;;;;;-0.59;82.67;99230.58;1759182;81;21169;-79
2021/01/03 04:56:37;;;;;;;30.35;13.48;;;;;;;-0.52;82.43;99231.98;1737524;81;21586;-78
2021/01/03 04:59:37;;;;;;;33.33;11.83;;;;;;;-0.47;82.69;99235.52;1738275;81;21663;-79
2021/01/03 05:02:47;;;;;;;30.97;12.25;;;;;;;-0.44;82.68;99231.77;1748612;82;21173;-77
2021/01/03 05:05:29;;;;;;;25.92;10.50;;;;;;;-0.31;82.71;99222.66;1798708;78;22941;-78
2021/01/03 05:08:31;;;;;;;23.25;10.08;;;;;;;-0.28;82.11;99222.73;1718250;83;21145;-80
2021/01/03 05:11:18;;;;;;;20.25;8.45;;;;;;;-0.17;81.64;99229.32;1877220;74;22813;-78
2021/01/03 05:14:00;;;;;;;22.02;9.13;;;;;;;-0.18;81.30;99219.06;1844857;75;21189;-77
2021/01/03 05:16:27;;;;;;;21.20;9.28;;;;;;;-0.14;81.18;99228.52;1844517;75;21312;-79
2021/01/03 05:18:55;;;;;;;20.40;7.87;;;;;;;-0.11;80.94;99226.03;1843254;75;21186;-78
2021/01/03 05:21:22;;;;;;;17.25;8.25;;;;;;;-0.09;80.77;99220.53;1840915;77;21287;-81
2021/01/03 05:24:00;;;;;;;22.50;8.25;;;;;;;-0.10;80.02;99223.91;1844894;75;21280;-78
2021/01/03 05:26:37;;;;;;;22.77;9.80;;;;;;;-0.08;80.52;99229.91;1845578;75;21265;-79
2021/01/03 05:29:11;;;;;;;23.25;8.18;;;;;;;-0.12;80.57;99216.63;1782311;78;21188;-78
2021/01/03 05:31:39;;;;;;;22.50;8.10;;;;;;;-0.01;80.58;99225.38;1811747;78;21250;-80
2021/01/03 05:34:09;;;;;;;18.60;7.35;;;;;;;0.00;80.22;99225.83;1809421;78;21309;-79
2021/01/03 05:36:47;;;;;;;16.40;7.12;;;;;;;0.04;79.73;99235.67;1808506;78;21277;-79
2021/01/03 05:39:23;;;;;;;24.55;10.55;;;;;;;0.04;80.00;99244.23;1779680;78;21140;-79
2021/01/03 05:42:13;;;;;;;24.05;10.82;;;;;;;0.05;80.32;99245.94;1809424;77;21274;-79
2021/01/03 05:44:45;;;;;;;24.65;11.48;;;;;;;0.06;80.68;99245.52;1808620;78;21298;-80
2021/01/03 05:47:24;;;;;;;33.67;13.72;;;;;;;0.04;80.88;99239.12;1809906;77;21712;-80
2021/01/03 05:50:15;;;;;;;29.70;11.73;;;;;;;0.02;80.91;99246.29;1810222;77;21173;-79
2021/01/03 05:52:49;;;;;;;31.52;14.03;;;;;;;0.07;80.78;99247.25;1810198;77;21830;-79
2021/01/03 05:55:24;;;;;;;34.38;12.93;;;;;;;0.05;80.77;99240.83;1810118;78;21274;-77
2021/01/03 05:58:12;;;;;;;33.25;14.07;;;;;;;0.01;80.77;99242.02;1806155;77;21260;-78
2021/01/03 06:00:40;;;;;;;29.45;13.15;;;;;;;0.02;80.68;99252.29;1806935;77;21285;-80
2021/01/03 06:03:30;;;;;;;29.25;13.60;;;;;;;-0.02;80.78;99252.64;1778772;78;21787;-78
2021/01/03 06:06:19;;;;;;;28.55;12.45;;;;;;;-0.05;80.91;99255.54;1808373;78;21598;-79
2021/01/03 06:08:48;;;;;;;36.93;13.50;;;;;;;-0.07;81.00;99262.31;1808481;77;21880;-78
2021/01/03 06:11:20;;;;;;;29.20;14.38;;;;;;;-0.11;81.10;99258.83;1803274;77;21296;-78
2021/01/03 06:13:58;;;;;;;30.70;13.43;;;;;;;-0.14;81.13;99257.90;1778291;79;21641;-80
2021/01/03 06:16:30;;;;;;;33.20;15.65;;;;;;;-0.16;81.28;99251.50;1783065;78;21141;-80
2021/01/03 06:19:09;;;;;;;30.80;13.03;;;;;;;-0.15;81.28;99256.19;1780923;78;21184;-78
2021/01/03 06:21:40;;;;;;;35.63;15.65;;;;;;;-0.18;81.39;99262.08;1777161;78;21173;-78
2021/01/03 06:24:25;;;;;;;32.65;13.53;;;;;;;-0.16;81.38;99258.28;1768070;79;21684;-80
2021/01/03 06:27:02;;;;;;;29.90;13.53;;;;;;;-0.16;81.44;99245.51;1766261;79;21185;-77
2021/01/03 06:29:43;;;;;;;33.98;13.45;;;;;;;-0.17;81.37;99243.80;1776336;78;21225;-78
2021/01/03 06:32:39;;;;;;;30.52;15.25;;;;;;;-0.18;81.31;99239.08;1778905;78;21164;-79
2021/01/03 06:35:37;;;;;;;33.80;14.87;;;;;;;-0.21;81.62;99236.48;1805252;78;24044;-79
2021/01/03 06:38:29;;;;;;;53.05;19.27;;;;;;;-0.24;81.47;99224.91;1824119;77;21264;-80
2021/01/03 06:41:14;;;;;;;40.80;18.27;;;;;;;-0.28;81.49;99224.01;1808698;77;21181;-78
2021/01/03 06:44:12;;;;;;;42.23;17.15;;;;;;;-0.25;81.35;99230.44;1745041;82;21181;-79
2021/01/03 06:47:12;;;;;;;35.83;17.52;;;;;;;-0.22;81.42;99238.19;1818614;77;21107;-80
2021/01/03 06:49:45;;;;;;;32.60;15.48;;;;;;;-0.23;81.70;99246.66;1735376;81;21190;-79
2021/01/03 06:53:07;;;;;;;43.10;16.50;;;;;;;-0.19;81.61;99251.84;1768867;80;21190;-79
2021/01/03 06:56:02;;;;;;;29.02;12.75;;;;;;;-0.13;81.36;99257.08;1771261;80;21157;-80
2021/01/03 06:59:04;;;;;;;30.88;13.75;;;;;;;-0.10;81.30;99254.18;1740658;81;21204;-78
2021/01/03 07:01:36;;;;;;;26.77;13.13;;;;;;;-0.05;81.00;99256.82;1772820;80;21315;-80
2021/01/03 07:04:33;;;;;;;29.10;13.00;;;;;;;-0.05;80.98;99269.59;1771015;80;21209;-79
2021/01/03 07:07:05;;;;;;;26.87;12.23;;;;;;;0.00;80.82;99268.02;1812754;78;21241;-78
2021/01/03 07:09:32;;;;;;;25.40;11.88;;;;;;;0.05;80.67;99276.62;1811089;77;21150;-79
2021/01/03 07:12:00;;;;;;;37.23;14.33;;;;;;;0.04;80.60;99281.69;1821223;77;21283;-80
2021/01/03 07:14:39;;;;;;;29.52;12.30;;;;;;;0.08;80.55;99281.80;1822544;77;21284;-82
2021/01/03 07:17:11;;;;;;;32.58;12.65;;;;;;;0.09;80.53;99278.82;1746216;81;21158;-80
2021/01/03 07:19:47;;;;;;;31.27;12.10;;;;;;;0.09;80.43;99281.38;1770324;80;21776;-80
2021/01/03 07:22:25;;;;;;;33.78;11.80;;;;;;;0.13;80.29;99275.49;1811659;78;21311;-79
2021/01/03 07:25:03;;;;;;;29.75;12.23;;;;;;;0.15;80.39;99269.99;1744979;82;21170;-79
2021/01/03 07:27:38;;;;;;;24.63;12.07;;;;;;;0.24;80.43;99264.18;1773512;80;21271;-79
2021/01/03 07:30:13;;;;;;;26.20;11.73;;;;;;;0.25;80.40;99267.20;1745653;82;21306;-79
2021/01/03 07:32:47;;;;;;;30.57;13.50;;;;;;;0.29;80.38;99267.70;1772544;80;21331;-80
2021/01/03 07:35:32;;;;;;;31.82;14.98;;;;;;;0.34;80.57;99252.89;1742344;80;21153;-80
2021/01/03 07:38:25;;;;;;;28.42;13.85;;;;;;;0.37;80.48;99267.42;1748481;82;21280;-81
2021/01/03 07:41:04;;;;;;;36.88;15.83;;;;;;;0.41;80.63;99267.07;1765406;80;21168;-80
2021/01/03 07:44:01;;;;;;;34.80;15.15;;;;;;;0.46;80.45;99270.16;1747643;82;21304;-81
2021/01/03 07:46:46;;;;;;;24.82;12.25;;;;;;;0.51;80.63;99277.48;1742626;82;21151;-80
2021/01/03 07:49:39;;;;;;;30.32;14.05;;;;;;;0.47;80.45;99282.53;1744660;81;21181;-80
2021/01/03 07:52:25;;;;;;;29.55;13.65;;;;;;;0.48;80.40;99281.67;1765309;80;21209;-79
2021/01/03 07:54:56;;;;;;;28.20;12.63;;;;;;;0.48;80.58;99282.56;1745210;82;21127;-79
2021/01/03 07:57:26;;;;;;;37.60;17.15;;;;;;;0.48;80.60;99288.95;1771718;80;21235;-82
2021/01/03 07:59:56;;;;;;;28.47;14.30;;;;;;;0.50;81.01;99303.92;1744926;79;21213;-83
2021/01/03 08:02:29;;;;;;;29.75;14.13;;;;;;;0.53;80.99;99304.38;1763833;81;21267;-82
2021/01/03 08:05:00;;;;;;;38.33;15.32;;;;;;;0.52;81.01;99300.97;1749230;79;21249;-84
2021/01/03 08:07:28;;;;;;;38.58;14.73;;;;;;;0.56;81.37;99301.89;1768833;79;21528;-83
2021/01/03 08:10:09;;;;;;;29.85;12.50;;;;;;;0.57;81.33;99298.06;1755506;79;21102;-83
2021/01/03 08:12:42;;;;;;;34.80;14.47;;;;;;;0.62;81.08;99277.70;1746666;78;21257;-83
2021/01/03 08:15:21;;;;;;;27.73;11.63;;;;;;;0.62;81.32;99289.60;1747395;82;21288;-79
2021/01/03 08:17:48;;;;;;;32.67;15.05;;;;;;;0.65;81.37;99280.30;1760543;80;21283;-82
2021/01/03 08:20:21;;;;;;;33.25;15.53;;;;;;;0.68;81.85;99285.48;1745756;81;21275;-81
2021/01/03 08:22:48;;;;;;;44.25;20.43;;;;;;;0.74;82.04;99287.28;1746331;80;21130;-79
2021/01/03 08:25:24;;;;;;;43.92;20.62;;;;;;;0.81;82.74;99290.38;1748075;81;21130;-84
2021/01/03 08:28:08;;;;;;;35.88;15.43;;;;;;;0.82;82.23;99284.44;1767165;80;21236;-82
2021/01/03 08:30:37;;;;;;;27.87;13.40;;;;;;;0.85;82.09;99274.23;1748910;80;21248;-83
2021/01/03 08:33:36;;;;;;;25.02;11.35;;;;;;;0.87;82.06;99289.20;1768855;80;21484;-83
2021/01/03 08:36:23;;;;;;;27.58;14.05;;;;;;;0.92;81.73;99292.71;1806013;77;22950;-80
2021/01/03 08:38:53;;;;;;;30.95;12.93;;;;;;;0.88;82.19;99285.82;1804602;78;21729;-80
2021/01/03 08:41:26;;;;;;;28.40;12.43;;;;;;;0.89;82.28;99284.97;1808255;78;21208;-82
2021/01/03 08:43:54;;;;;;;31.90;11.95;;;;;;;0.86;82.42;99273.41;1814221;78;21491;-83
2021/01/03 08:46:29;;;;;;;27.67;11.70;;;;;;;0.87;82.37;99263.60;1806476;78;21263;-84
2021/01/03 08:49:00;;;;;;;30.92;13.95;;;;;;;0.96;82.34;99269.31;1804761;78;21300;-82
2021/01/03 08:51:28;;;;;;;29.95;14.43;;;;;;;1.02;82.26;99283.91;1816066;78;21129;-82
2021/01/03 08:54:05;;;;;;;27.93;12.58;;;;;;;1.08;82.03;99280.17;1815471;78;21130;-83
2021/01/03 08:56:47;;;;;;;26.37;12.65;;;;;;;1.11;81.95;99269.53;1786273;78;21681;-84
2021/01/03 08:59:17;;;;;;;26.45;11.53;;;;;;;1.15;81.95;99249.95;1800164;77;21256;-84
2021/01/03 09:01:45;;;;;;;40.73;13.80;;;;;;;1.19;82.17;99253.01;1812673;78;21243;-83
2021/01/03 09:04:19;;;;;;;24.82;11.75;;;;;;;1.25;81.76;99250.53;1804048;78;21245;-82
2021/01/03 09:06:57;;;;;;;24.85;9.63;;;;;;;1.26;81.51;99252.27;1810700;78;21225;-83
2021/01/03 09:09:28;;;;;;;29.98;11.08;;;;;;;1.28;81.82;99267.24;1813909;78;21307;-83
2021/01/03 09:12:06;;;;;;;26.50;10.40;;;;;;;1.30;81.99;99266.84;1810080;78;21126;-83
2021/01/03 09:14:49;;;;;;;29.57;10.85;;;;;;;1.35;81.37;99265.23;1782822;78;21449;-83
2021/01/03 09:17:30;;;;;;;31.02;11.30;;;;;;;1.39;81.63;99256.75;1825154;77;22993;-80
2021/01/03 09:20:23;;;;;;;24.65;11.53;;;;;;;1.34;81.59;99265.20;1812198;78;21254;-82
2021/01/03 09:22:54;;;;;;;29.40;13.72;;;;;;;1.32;81.45;99254.07;1810306;78;21258;-81
2021/01/03 09:25:35;;;;;;;28.75;13.00;;;;;;;1.24;81.63;99251.81;1814785;78;21273;-82
2021/01/03 09:28:32;;;;;;;29.52;13.45;;;;;;;1.19;81.91;99242.37;1809699;78;21277;-82
2021/01/03 09:31:20;;;;;;;31.80;12.85;;;;;;;1.29;81.70;99252.30;1810706;78;21135;-81
2021/01/03 09:34:08;;;;;;;25.90;11.43;;;;;;;1.34;81.40;99243.42;1813979;78;21155;-79
2021/01/03 09:37:08;;;;;;;29.37;11.97;;;;;;;1.29;82.30;99237.36;1786901;78;21135;-81
2021/01/03 09:39:58;;;;;;;29.75;12.00;;;;;;;1.37;81.86;99237.05;1808576;78;21805;-77
2021/01/03 09:43:07;;;;;;;22.45;10.58;;;;;;;1.01;82.56;99171.66;1810305;78;21307;-78
2021/01/03 09:46:05;;;;;;;26.40;10.63;;;;;;;1.57;82.00;99236.04;1808998;78;21132;-79
2021/01/03 09:48:38;;;;;;;28.27;12.30;;;;;;;1.74;81.29;99238.84;1815102;78;21289;-78
2021/01/03 09:51:33;;;;;;;25.62;11.35;;;;;;;1.84;80.91;99234.25;1813182;78;21170;-80
2021/01/03 09:54:18;;;;;;;22.15;10.75;;;;;;;1.96;80.43;99227.14;1812996;78;21277;-81
2021/01/03 09:56:49;;;;;;;24.23;11.53;;;;;;;2.10;80.13;99222.16;1783201;78;22326;-81
2021/01/03 09:59:20;;;;;;;27.05;11.83;;;;;;;2.24;79.95;99221.03;1811390;78;21725;-81
2021/01/03 10:01:50;;;;;;;30.62;12.85;;;;;;;2.36;79.41;99207.03;1814857;78;21293;-80
2021/01/03 10:04:25;;;;;;;26.33;13.43;;;;;;;2.50;79.14;99209.30;1812140;78;21344;-81
2021/01/03 10:07:13;;;;;;;35.52;15.75;;;;;;;2.62;79.40;99210.27;1809192;77;21142;-81
2021/01/03 10:09:51;;;;;;;27.02;12.43;;;;;;;2.63;78.74;99209.01;1813688;77;21261;-81
2021/01/03 10:12:35;;;;;;;37.48;15.13;;;;;;;2.65;78.30;99209.03;1812373;78;21317;-80
2021/01/03 10:15:23;;;;;;;29.18;12.95;;;;;;;2.69;78.59;99199.22;1806980;77;21150;-78
2021/01/03 10:18:01;;;;;;;31.27;13.45;;;;;;;2.83;78.63;99196.33;1807682;77;21162;-78
2021/01/03 10:20:50;;;;;;;27.75;14.13;;;;;;;2.92;78.28;99192.96;1808818;78;21154;-81
2021/01/03 10:23:35;;;;;;;32.38;16.20;;;;;;;3.10;79.02;99187.09;1811020;78;21274;-81
2021/01/03 10:26:07;;;;;;;33.63;16.32;;;;;;;3.21;78.14;99189.31;1810746;78;21297;-81
2021/01/03 10:28:35;;;;;;;35.70;16.37;;;;;;;3.33;78.65;99176.53;1809604;78;21272;-81
2021/01/03 10:31:02;;;;;;;36.42;16.35;;;;;;;3.41;77.95;99166.73;1809821;78;22345;-81
2021/01/03 10:33:30;;;;;;;31.85;14.53;;;;;;;3.54;77.93;99167.20;1808264;78;21293;-80
2021/01/03 10:35:57;;;;;;;29.50;14.33;;;;;;;3.73;76.92;99158.70;1818393;78;21297;-80
2021/01/03 10:38:24;;;;;;;34.55;15.85;;;;;;;3.82;77.55;99152.75;1815035;78;21274;-82
2021/01/03 10:40:51;;;;;;;29.82;15.03;;;;;;;3.94;77.28;99142.49;1805939;78;21270;-81
2021/01/03 10:43:19;;;;;;;33.00;14.10;;;;;;;4.10;77.26;99149.81;1820841;78;21328;-83
2021/01/03 10:45:46;;;;;;;32.60;15.10;;;;;;;4.21;76.42;99152.83;1808717;78;21285;-82
2021/01/03 10:48:14;;;;;;;26.82;14.73;;;;;;;4.18;75.49;99151.97;1814322;78;21273;-81
2021/01/03 10:50:41;;;;;;;31.30;15.10;;;;;;;4.20;75.93;99149.41;1821274;78;22311;-81
2021/01/03 10:53:08;;;;;;;26.02;12.63;;;;;;;4.24;76.31;99145.09;1813006;78;21293;-82
2021/01/03 10:55:36;;;;;;;25.77;12.13;;;;;;;4.19;75.90;99134.38;1813426;78;21261;-82
2021/01/03 10:58:03;;;;;;;23.22;10.08;;;;;;;4.29;76.33;99135.68;1810116;78;21304;-82
2021/01/03 11:00:30;;;;;;;25.60;11.63;;;;;;;4.27;75.66;99134.82;1816378;78;21293;-81
2021/01/03 11:02:57;;;;;;;28.38;13.40;;;;;;;4.46;75.85;99124.13;1807280;78;21187;-82
2021/01/03 11:05:25;;;;;;;31.27;14.65;;;;;;;4.63;75.93;99120.23;1813829;78;21276;-81
2021/01/03 11:07:52;;;;;;;26.65;12.82;;;;;;;4.81;76.29;99124.07;1813935;78;21285;-82
2021/01/03 11:10:21;;;;;;;31.35;13.88;;;;;;;4.87;76.28;99129.21;1810468;78;21289;-80
2021/01/03 11:12:49;;;;;;;26.68;12.10;;;;;;;4.85;75.55;99136.08;1816884;78;21309;-81
2021/01/03 11:15:16;;;;;;;23.02;11.22;;;;;;;4.88;75.20;99128.37;1811534;78;21310;-81
2021/01/03 11:17:45;;;;;;;22.52;11.15;;;;;;;4.96;74.13;99121.91;1802348;79;21249;-81
2021/01/03 11:20:15;;;;;;;19.67;11.00;;;;;;;5.04;74.99;99142.52;1801563;79;21261;-82
2021/01/03 11:22:42;;;;;;;20.50;10.78;;;;;;;5.08;74.25;99142.94;1807576;79;21297;-82
2021/01/03 11:25:11;;;;;;;21.25;10.68;;;;;;;5.15;73.27;99138.17;1807402;78;21293;-82
2021/01/03 11:27:38;;;;;;;25.92;11.63;;;;;;;5.26;74.33;99131.28;1802976;79;21301;-82
2021/01/03 11:30:08;;;;;;;17.95;8.98;;;;;;;5.45;74.67;99131.20;1746965;82;21274;-81
2021/01/03 11:32:36;;;;;;;17.98;10.18;;;;;;;5.68;73.58;99131.97;1741606;82;21287;-82
2021/01/03 11:35:07;;;;;;;26.85;11.80;;;;;;;5.92;72.50;99121.95;1758988;80;21269;-82
2021/01/03 11:37:35;;;;;;;19.12;10.32;;;;;;;6.14;73.50;99135.61;1803504;79;21694;-80
2021/01/03 11:40:05;;;;;;;31.35;14.23;;;;;;;6.35;72.22;99128.16;1801069;79;21710;-82
2021/01/03 11:42:37;;;;;;;22.37;9.80;;;;;;;6.54;73.05;99129.30;1805219;79;21166;-81
2021/01/03 11:45:09;;;;;;;20.90;9.68;;;;;;;6.56;72.00;99122.39;1799743;79;21730;-82
2021/01/03 11:47:37;;;;;;;31.87;13.53;;;;;;;6.53;71.50;99122.00;1804363;79;21925;-83
2021/01/03 11:50:10;;;;;;;29.37;13.93;;;;;;;6.44;70.48;99129.80;1799715;79;22172;-82
2021/01/03 11:52:37;;;;;;;24.12;11.45;;;;;;;6.51;71.29;99129.34;1806845;79;21719;-81
2021/01/03 11:55:08;;;;;;;22.55;11.90;;;;;;;6.57;70.05;99131.43;1808071;79;21289;-79
2021/01/03 11:57:36;;;;;;;24.37;11.57;;;;;;;6.66;71.33;99130.92;1806720;79;21151;-81